sensor_id;sensor_type;location;lat;lon;timestamp;P1;durP1;ratioP1;P2;durP2;ratioP2
44925;SDS011;30662;51.210;7.656;2023-04-25T00:00:43;12.73;;;7.43;;
44925;SDS011;30662;51.210;7.656;2023-04-25T00:03:09;15.25;;;6.97;;
44925;SDS011;30662;51.210;7.656;2023-04-25T00:05:35;16.27;;;7.88;;
44925;SDS011;30662;51.210;7.656;2023-04-25T00:08:03;11.52;;;6.70;;
44925;SDS011;30662;51.210;7.656;2023-04-25T00:10:29;15.48;;;7.65;;
44925;SDS011;30662;51.210;7.656;2023-04-25T00:12:55;15.55;;;7.53;;
44925;SDS011;30662;51.210;7.656;2023-04-25T00:15:23;15.40;;;7.65;;
44925;SDS011;30662;51.210;7.656;2023-04-25T00:17:49;17.17;;;8.07;;
44925;SDS011;30662;51.210;7.656;2023-04-25T00:20:18;19.73;;;8.00;;
44925;SDS011;30662;51.210;7.656;2023-04-25T00:22:44;13.73;;;7.60;;
44925;SDS011;30662;51.210;7.656;2023-04-25T00:25:09;17.73;;;8.68;;
44925;SDS011;30662;51.210;7.656;2023-04-25T00:27:35;18.20;;;8.27;;
44925;SDS011;30662;51.210;7.656;2023-04-25T00:30:02;19.67;;;7.43;;
44925;SDS011;30662;51.210;7.656;2023-04-25T00:32:28;14.40;;;6.80;;
44925;SDS011;30662;51.210;7.656;2023-04-25T00:34:54;20.52;;;8.32;;
44925;SDS011;30662;51.210;7.656;2023-04-25T00:37:21;17.23;;;7.30;;
44925;SDS011;30662;51.210;7.656;2023-04-25T00:39:47;13.73;;;7.55;;
44925;SDS011;30662;51.210;7.656;2023-04-25T00:42:13;11.98;;;6.85;;
44925;SDS011;30662;51.210;7.656;2023-04-25T00:44:39;21.25;;;9.10;;
44925;SDS011;30662;51.210;7.656;2023-04-25T00:47:05;23.88;;;7.75;;
44925;SDS011;30662;51.210;7.656;2023-04-25T00:49:32;15.85;;;7.22;;
44925;SDS011;30662;51.210;7.656;2023-04-25T00:51:58;18.13;;;7.68;;
44925;SDS011;30662;51.210;7.656;2023-04-25T00:54:24;14.52;;;7.40;;
44925;SDS011;30662;51.210;7.656;2023-04-25T00:56:50;18.02;;;7.65;;
44925;SDS011;30662;51.210;7.656;2023-04-25T00:59:16;17.25;;;7.22;;
44925;SDS011;30662;51.210;7.656;2023-04-25T01:01:43;16.90;;;7.72;;
44925;SDS011;30662;51.210;7.656;2023-04-25T01:04:10;14.40;;;7.85;;
44925;SDS011;30662;51.210;7.656;2023-04-25T01:06:36;17.63;;;8.05;;
44925;SDS011;30662;51.210;7.656;2023-04-25T01:09:02;16.65;;;7.95;;
44925;SDS011;30662;51.210;7.656;2023-04-25T01:11:30;21.23;;;8.23;;
44925;SDS011;30662;51.210;7.656;2023-04-25T01:13:56;19.42;;;8.10;;
44925;SDS011;30662;51.210;7.656;2023-04-25T01:16:22;14.45;;;7.22;;
44925;SDS011;30662;51.210;7.656;2023-04-25T01:18:49;19.52;;;8.13;;
44925;SDS011;30662;51.210;7.656;2023-04-25T01:21:16;12.25;;;7.65;;
44925;SDS011;30662;51.210;7.656;2023-04-25T01:23:42;15.15;;;7.35;;
44925;SDS011;30662;51.210;7.656;2023-04-25T01:26:09;14.57;;;7.20;;
44925;SDS011;30662;51.210;7.656;2023-04-25T01:28:36;18.10;;;8.07;;
44925;SDS011;30662;51.210;7.656;2023-04-25T01:31:02;15.98;;;7.50;;
44925;SDS011;30662;51.210;7.656;2023-04-25T01:33:29;11.13;;;7.20;;
44925;SDS011;30662;51.210;7.656;2023-04-25T01:35:55;17.90;;;7.82;;
44925;SDS011;30662;51.210;7.656;2023-04-25T01:38:21;14.18;;;8.57;;
44925;SDS011;30662;51.210;7.656;2023-04-25T01:40:47;16.38;;;8.77;;
44925;SDS011;30662;51.210;7.656;2023-04-25T01:43:16;15.35;;;8.35;;
44925;SDS011;30662;51.210;7.656;2023-04-25T01:45:42;17.92;;;8.55;;
44925;SDS011;30662;51.210;7.656;2023-04-25T01:48:08;15.98;;;8.27;;
44925;SDS011;30662;51.210;7.656;2023-04-25T01:50:35;19.45;;;9.38;;
44925;SDS011;30662;51.210;7.656;2023-04-25T01:53:05;17.75;;;9.48;;
44925;SDS011;30662;51.210;7.656;2023-04-25T01:55:31;17.13;;;8.48;;
44925;SDS011;30662;51.210;7.656;2023-04-25T01:57:57;16.38;;;9.00;;
44925;SDS011;30662;51.210;7.656;2023-04-25T02:00:24;13.02;;;8.48;;
44925;SDS011;30662;51.210;7.656;2023-04-25T02:02:50;14.63;;;8.95;;
44925;SDS011;30662;51.210;7.656;2023-04-25T02:05:16;16.92;;;9.40;;
44925;SDS011;30662;51.210;7.656;2023-04-25T02:07:42;19.05;;;9.07;;
44925;SDS011;30662;51.210;7.656;2023-04-25T02:10:09;16.15;;;8.32;;
44925;SDS011;30662;51.210;7.656;2023-04-25T02:12:35;15.23;;;9.02;;
44925;SDS011;30662;51.210;7.656;2023-04-25T02:15:01;20.25;;;9.40;;
44925;SDS011;30662;51.210;7.656;2023-04-25T02:17:27;20.02;;;9.15;;
44925;SDS011;30662;51.210;7.656;2023-04-25T02:19:53;15.57;;;9.23;;
44925;SDS011;30662;51.210;7.656;2023-04-25T02:22:19;18.17;;;10.20;;
44925;SDS011;30662;51.210;7.656;2023-04-25T02:24:45;17.42;;;9.98;;
44925;SDS011;30662;51.210;7.656;2023-04-25T02:27:11;20.73;;;9.77;;
44925;SDS011;30662;51.210;7.656;2023-04-25T02:29:37;16.33;;;9.73;;
44925;SDS011;30662;51.210;7.656;2023-04-25T02:32:03;17.05;;;10.60;;
44925;SDS011;30662;51.210;7.656;2023-04-25T02:34:29;18.92;;;10.80;;
44925;SDS011;30662;51.210;7.656;2023-04-25T02:36:55;17.45;;;10.38;;
44925;SDS011;30662;51.210;7.656;2023-04-25T02:39:21;14.82;;;10.32;;
44925;SDS011;30662;51.210;7.656;2023-04-25T02:41:47;18.15;;;11.50;;
44925;SDS011;30662;51.210;7.656;2023-04-25T02:44:13;20.83;;;11.95;;
44925;SDS011;30662;51.210;7.656;2023-04-25T02:46:39;18.98;;;11.73;;
44925;SDS011;30662;51.210;7.656;2023-04-25T02:49:05;21.67;;;11.40;;
44925;SDS011;30662;51.210;7.656;2023-04-25T02:51:31;18.33;;;11.52;;
44925;SDS011;30662;51.210;7.656;2023-04-25T02:53:58;18.00;;;11.50;;
44925;SDS011;30662;51.210;7.656;2023-04-25T02:56:24;18.48;;;11.45;;
44925;SDS011;30662;51.210;7.656;2023-04-25T02:58:51;20.42;;;12.32;;
44925;SDS011;30662;51.210;7.656;2023-04-25T03:01:18;18.73;;;12.27;;
44925;SDS011;30662;51.210;7.656;2023-04-25T03:03:44;22.70;;;12.68;;
44925;SDS011;30662;51.210;7.656;2023-04-25T03:06:10;15.38;;;11.88;;
44925;SDS011;30662;51.210;7.656;2023-04-25T03:08:36;22.42;;;13.15;;
44925;SDS011;30662;51.210;7.656;2023-04-25T03:11:02;22.40;;;13.25;;
44925;SDS011;30662;51.210;7.656;2023-04-25T03:13:28;20.80;;;13.68;;
44925;SDS011;30662;51.210;7.656;2023-04-25T03:15:55;27.50;;;15.13;;
44925;SDS011;30662;51.210;7.656;2023-04-25T03:18:21;20.58;;;13.90;;
44925;SDS011;30662;51.210;7.656;2023-04-25T03:20:46;21.10;;;13.13;;
44925;SDS011;30662;51.210;7.656;2023-04-25T03:23:12;23.98;;;15.15;;
44925;SDS011;30662;51.210;7.656;2023-04-25T03:25:38;21.48;;;15.40;;
44925;SDS011;30662;51.210;7.656;2023-04-25T03:28:04;20.83;;;14.88;;
44925;SDS011;30662;51.210;7.656;2023-04-25T03:30:30;23.88;;;15.48;;
44925;SDS011;30662;51.210;7.656;2023-04-25T03:32:56;24.95;;;15.25;;
44925;SDS011;30662;51.210;7.656;2023-04-25T03:35:22;22.77;;;14.80;;
44925;SDS011;30662;51.210;7.656;2023-04-25T03:37:51;18.02;;;14.32;;
44925;SDS011;30662;51.210;7.656;2023-04-25T03:40:16;22.70;;;14.35;;
44925;SDS011;30662;51.210;7.656;2023-04-25T03:42:43;20.65;;;14.20;;
44925;SDS011;30662;51.210;7.656;2023-04-25T03:45:10;21.50;;;15.77;;
44925;SDS011;30662;51.210;7.656;2023-04-25T03:47:36;24.70;;;13.55;;
44925;SDS011;30662;51.210;7.656;2023-04-25T03:50:02;23.92;;;14.27;;
44925;SDS011;30662;51.210;7.656;2023-04-25T03:52:29;23.35;;;14.43;;
44925;SDS011;30662;51.210;7.656;2023-04-25T03:54:54;22.67;;;13.98;;
44925;SDS011;30662;51.210;7.656;2023-04-25T03:57:20;16.65;;;12.38;;
44925;SDS011;30662;51.210;7.656;2023-04-25T03:59:46;20.98;;;13.30;;
44925;SDS011;30662;51.210;7.656;2023-04-25T04:02:12;17.98;;;12.85;;
44925;SDS011;30662;51.210;7.656;2023-04-25T04:04:38;18.13;;;13.02;;
44925;SDS011;30662;51.210;7.656;2023-04-25T04:07:04;20.60;;;12.95;;
44925;SDS011;30662;51.210;7.656;2023-04-25T04:09:30;23.40;;;13.38;;
44925;SDS011;30662;51.210;7.656;2023-04-25T04:11:56;19.90;;;14.52;;
44925;SDS011;30662;51.210;7.656;2023-04-25T04:14:22;15.25;;;11.68;;
44925;SDS011;30662;51.210;7.656;2023-04-25T04:16:47;18.48;;;11.50;;
44925;SDS011;30662;51.210;7.656;2023-04-25T04:19:13;15.68;;;8.93;;
44925;SDS011;30662;51.210;7.656;2023-04-25T04:21:39;14.90;;;8.85;;
44925;SDS011;30662;51.210;7.656;2023-04-25T04:24:05;12.60;;;8.50;;
44925;SDS011;30662;51.210;7.656;2023-04-25T04:26:32;12.40;;;7.70;;
44925;SDS011;30662;51.210;7.656;2023-04-25T04:28:59;15.45;;;7.60;;
44925;SDS011;30662;51.210;7.656;2023-04-25T04:31:25;13.80;;;7.45;;
44925;SDS011;30662;51.210;7.656;2023-04-25T04:33:51;12.90;;;7.35;;
44925;SDS011;30662;51.210;7.656;2023-04-25T04:36:17;14.05;;;6.85;;
44925;SDS011;30662;51.210;7.656;2023-04-25T04:38:48;16.17;;;6.82;;
44925;SDS011;30662;51.210;7.656;2023-04-25T04:41:14;13.32;;;6.78;;
44925;SDS011;30662;51.210;7.656;2023-04-25T04:43:40;12.05;;;7.78;;
44925;SDS011;30662;51.210;7.656;2023-04-25T04:46:07;13.20;;;6.70;;
44925;SDS011;30662;51.210;7.656;2023-04-25T04:48:32;15.95;;;6.95;;
44925;SDS011;30662;51.210;7.656;2023-04-25T04:50:59;13.95;;;6.57;;
44925;SDS011;30662;51.210;7.656;2023-04-25T04:53:26;8.90;;;6.57;;
44925;SDS011;30662;51.210;7.656;2023-04-25T04:55:52;15.20;;;8.30;;
44925;SDS011;30662;51.210;7.656;2023-04-25T04:58:18;13.52;;;8.50;;
44925;SDS011;30662;51.210;7.656;2023-04-25T05:00:44;14.65;;;8.77;;
44925;SDS011;30662;51.210;7.656;2023-04-25T05:03:10;14.23;;;9.32;;
44925;SDS011;30662;51.210;7.656;2023-04-25T05:05:37;16.92;;;8.48;;
44925;SDS011;30662;51.210;7.656;2023-04-25T05:08:05;15.65;;;10.18;;
44925;SDS011;30662;51.210;7.656;2023-04-25T05:10:31;17.23;;;10.40;;
44925;SDS011;30662;51.210;7.656;2023-04-25T05:12:57;17.30;;;10.50;;
44925;SDS011;30662;51.210;7.656;2023-04-25T05:15:23;16.95;;;11.38;;
44925;SDS011;30662;51.210;7.656;2023-04-25T05:17:49;21.67;;;11.50;;
44925;SDS011;30662;51.210;7.656;2023-04-25T05:20:15;27.98;;;11.80;;
44925;SDS011;30662;51.210;7.656;2023-04-25T05:22:41;21.75;;;12.18;;
44925;SDS011;30662;51.210;7.656;2023-04-25T05:25:07;22.00;;;12.23;;
44925;SDS011;30662;51.210;7.656;2023-04-25T05:27:34;21.20;;;12.57;;
44925;SDS011;30662;51.210;7.656;2023-04-25T05:30:00;22.10;;;11.85;;
44925;SDS011;30662;51.210;7.656;2023-04-25T05:32:26;23.48;;;12.18;;
44925;SDS011;30662;51.210;7.656;2023-04-25T05:34:52;24.90;;;12.65;;
44925;SDS011;30662;51.210;7.656;2023-04-25T05:37:18;20.08;;;11.95;;
44925;SDS011;30662;51.210;7.656;2023-04-25T05:39:44;17.02;;;10.13;;
44925;SDS011;30662;51.210;7.656;2023-04-25T05:42:10;19.52;;;9.48;;
44925;SDS011;30662;51.210;7.656;2023-04-25T05:44:35;20.42;;;7.88;;
44925;SDS011;30662;51.210;7.656;2023-04-25T05:47:01;11.60;;;4.70;;
44925;SDS011;30662;51.210;7.656;2023-04-25T05:49:28;12.60;;;5.13;;
44925;SDS011;30662;51.210;7.656;2023-04-25T05:51:54;14.65;;;6.07;;
44925;SDS011;30662;51.210;7.656;2023-04-25T05:54:20;8.25;;;4.32;;
44925;SDS011;30662;51.210;7.656;2023-04-25T05:56:45;10.75;;;5.57;;
44925;SDS011;30662;51.210;7.656;2023-04-25T05:59:11;11.07;;;5.15;;
44925;SDS011;30662;51.210;7.656;2023-04-25T06:01:37;18.55;;;5.28;;
44925;SDS011;30662;51.210;7.656;2023-04-25T06:04:03;12.05;;;5.22;;
44925;SDS011;30662;51.210;7.656;2023-04-25T06:06:30;12.18;;;5.50;;
44925;SDS011;30662;51.210;7.656;2023-04-25T06:08:55;13.82;;;5.15;;
44925;SDS011;30662;51.210;7.656;2023-04-25T06:11:21;15.15;;;4.80;;
44925;SDS011;30662;51.210;7.656;2023-04-25T06:13:47;14.35;;;5.28;;
44925;SDS011;30662;51.210;7.656;2023-04-25T06:16:14;18.73;;;5.25;;
44925;SDS011;30662;51.210;7.656;2023-04-25T06:18:40;15.18;;;5.35;;
44925;SDS011;30662;51.210;7.656;2023-04-25T06:21:06;16.10;;;5.28;;
44925;SDS011;30662;51.210;7.656;2023-04-25T06:23:32;14.35;;;4.63;;
44925;SDS011;30662;51.210;7.656;2023-04-25T06:25:57;15.68;;;5.13;;
44925;SDS011;30662;51.210;7.656;2023-04-25T06:28:23;13.52;;;4.65;;
44925;SDS011;30662;51.210;7.656;2023-04-25T06:30:50;14.23;;;5.03;;
44925;SDS011;30662;51.210;7.656;2023-04-25T06:33:16;15.18;;;5.68;;
44925;SDS011;30662;51.210;7.656;2023-04-25T06:35:42;16.30;;;5.28;;
44925;SDS011;30662;51.210;7.656;2023-04-25T06:38:08;19.48;;;4.90;;
44925;SDS011;30662;51.210;7.656;2023-04-25T06:40:34;14.95;;;4.85;;
44925;SDS011;30662;51.210;7.656;2023-04-25T06:42:59;13.05;;;4.93;;
44925;SDS011;30662;51.210;7.656;2023-04-25T06:45:25;17.67;;;5.43;;
44925;SDS011;30662;51.210;7.656;2023-04-25T06:47:51;18.40;;;5.60;;
44925;SDS011;30662;51.210;7.656;2023-04-25T06:50:17;16.13;;;5.35;;
44925;SDS011;30662;51.210;7.656;2023-04-25T06:52:43;17.90;;;5.07;;
44925;SDS011;30662;51.210;7.656;2023-04-25T06:55:09;23.00;;;5.50;;
44925;SDS011;30662;51.210;7.656;2023-04-25T06:57:35;14.02;;;4.45;;
44925;SDS011;30662;51.210;7.656;2023-04-25T07:00:01;14.68;;;5.60;;
44925;SDS011;30662;51.210;7.656;2023-04-25T07:02:30;13.90;;;5.72;;
44925;SDS011;30662;51.210;7.656;2023-04-25T07:04:56;15.30;;;5.88;;
44925;SDS011;30662;51.210;7.656;2023-04-25T07:07:25;15.02;;;5.60;;
44925;SDS011;30662;51.210;7.656;2023-04-25T07:09:51;20.13;;;6.82;;
44925;SDS011;30662;51.210;7.656;2023-04-25T07:12:17;14.95;;;5.50;;
44925;SDS011;30662;51.210;7.656;2023-04-25T07:14:43;19.35;;;6.25;;
44925;SDS011;30662;51.210;7.656;2023-04-25T07:17:09;20.35;;;5.85;;
44925;SDS011;30662;51.210;7.656;2023-04-25T07:19:35;18.83;;;5.75;;
44925;SDS011;30662;51.210;7.656;2023-04-25T07:22:02;15.52;;;6.15;;
44925;SDS011;30662;51.210;7.656;2023-04-25T07:24:28;11.95;;;4.82;;
44925;SDS011;30662;51.210;7.656;2023-04-25T07:26:54;14.15;;;5.25;;
44925;SDS011;30662;51.210;7.656;2023-04-25T07:29:20;12.13;;;5.78;;
44925;SDS011;30662;51.210;7.656;2023-04-25T07:31:45;16.20;;;5.53;;
44925;SDS011;30662;51.210;7.656;2023-04-25T07:34:11;15.55;;;5.70;;
44925;SDS011;30662;51.210;7.656;2023-04-25T07:36:37;13.65;;;4.57;;
44925;SDS011;30662;51.210;7.656;2023-04-25T07:39:03;12.98;;;4.88;;
44925;SDS011;30662;51.210;7.656;2023-04-25T07:41:29;15.68;;;4.85;;
44925;SDS011;30662;51.210;7.656;2023-04-25T07:43:55;13.73;;;4.85;;
44925;SDS011;30662;51.210;7.656;2023-04-25T07:46:20;8.45;;;4.38;;
44925;SDS011;30662;51.210;7.656;2023-04-25T07:48:46;14.20;;;4.50;;
44925;SDS011;30662;51.210;7.656;2023-04-25T07:51:12;10.98;;;4.20;;
44925;SDS011;30662;51.210;7.656;2023-04-25T07:53:38;13.48;;;4.90;;
44925;SDS011;30662;51.210;7.656;2023-04-25T07:56:04;14.82;;;4.70;;
44925;SDS011;30662;51.210;7.656;2023-04-25T07:58:31;10.45;;;4.35;;
44925;SDS011;30662;51.210;7.656;2023-04-25T08:00:57;19.40;;;4.97;;
44925;SDS011;30662;51.210;7.656;2023-04-25T08:03:22;12.80;;;5.03;;
44925;SDS011;30662;51.210;7.656;2023-04-25T08:05:48;16.38;;;4.88;;
44925;SDS011;30662;51.210;7.656;2023-04-25T08:08:15;17.25;;;5.65;;
44925;SDS011;30662;51.210;7.656;2023-04-25T08:10:41;13.68;;;5.35;;
44925;SDS011;30662;51.210;7.656;2023-04-25T08:13:07;10.93;;;4.40;;
44925;SDS011;30662;51.210;7.656;2023-04-25T08:15:35;16.15;;;5.35;;
44925;SDS011;30662;51.210;7.656;2023-04-25T08:18:01;15.43;;;4.00;;
44925;SDS011;30662;51.210;7.656;2023-04-25T08:20:26;10.65;;;5.22;;
44925;SDS011;30662;51.210;7.656;2023-04-25T08:22:53;15.40;;;5.68;;
44925;SDS011;30662;51.210;7.656;2023-04-25T08:25:18;13.75;;;4.80;;
44925;SDS011;30662;51.210;7.656;2023-04-25T08:27:44;16.92;;;4.88;;
44925;SDS011;30662;51.210;7.656;2023-04-25T08:30:10;18.67;;;4.85;;
44925;SDS011;30662;51.210;7.656;2023-04-25T08:32:37;10.95;;;4.45;;
44925;SDS011;30662;51.210;7.656;2023-04-25T08:35:06;18.13;;;5.35;;
44925;SDS011;30662;51.210;7.656;2023-04-25T08:37:32;10.18;;;4.70;;
44925;SDS011;30662;51.210;7.656;2023-04-25T08:39:58;13.57;;;4.93;;
44925;SDS011;30662;51.210;7.656;2023-04-25T08:42:24;12.18;;;4.35;;
44925;SDS011;30662;51.210;7.656;2023-04-25T08:44:50;12.80;;;4.28;;
44925;SDS011;30662;51.210;7.656;2023-04-25T08:47:19;12.68;;;5.03;;
44925;SDS011;30662;51.210;7.656;2023-04-25T08:49:48;8.20;;;3.22;;
44925;SDS011;30662;51.210;7.656;2023-04-25T08:52:15;14.65;;;4.55;;
44925;SDS011;30662;51.210;7.656;2023-04-25T08:54:48;9.65;;;3.30;;
44925;SDS011;30662;51.210;7.656;2023-04-25T08:57:15;7.95;;;3.42;;
44925;SDS011;30662;51.210;7.656;2023-04-25T08:59:40;9.60;;;3.47;;
44925;SDS011;30662;51.210;7.656;2023-04-25T09:02:11;11.70;;;3.78;;
44925;SDS011;30662;51.210;7.656;2023-04-25T09:04:42;9.65;;;3.30;;
44925;SDS011;30662;51.210;7.656;2023-04-25T09:07:09;12.68;;;4.57;;
44925;SDS011;30662;51.210;7.656;2023-04-25T09:09:35;14.80;;;3.83;;
44925;SDS011;30662;51.210;7.656;2023-04-25T09:12:01;11.32;;;3.92;;
44925;SDS011;30662;51.210;7.656;2023-04-25T09:14:27;18.73;;;4.20;;
44925;SDS011;30662;51.210;7.656;2023-04-25T09:22:05;9.00;;;2.95;;
44925;SDS011;30662;51.210;7.656;2023-04-25T09:24:33;19.70;;;3.90;;
44925;SDS011;30662;51.210;7.656;2023-04-25T09:27:02;15.48;;;3.58;;
44925;SDS011;30662;51.210;7.656;2023-04-25T09:29:39;16.67;;;3.65;;
44925;SDS011;30662;51.210;7.656;2023-04-25T09:32:16;15.95;;;5.07;;
44925;SDS011;30662;51.210;7.656;2023-04-25T09:34:48;19.58;;;4.72;;
44925;SDS011;30662;51.210;7.656;2023-04-25T09:37:19;9.27;;;3.83;;
44925;SDS011;30662;51.210;7.656;2023-04-25T09:39:47;12.82;;;4.88;;
44925;SDS011;30662;51.210;7.656;2023-04-25T09:42:18;13.73;;;4.30;;
44925;SDS011;30662;51.210;7.656;2023-04-25T09:44:47;15.98;;;4.20;;
44925;SDS011;30662;51.210;7.656;2023-04-25T09:47:14;10.85;;;2.95;;
44925;SDS011;30662;51.210;7.656;2023-04-25T09:49:42;10.18;;;2.70;;
44925;SDS011;30662;51.210;7.656;2023-04-25T09:52:08;23.25;;;4.63;;
44925;SDS011;30662;51.210;7.656;2023-04-25T09:54:46;13.07;;;3.97;;
44925;SDS011;30662;51.210;7.656;2023-04-25T09:57:14;20.08;;;11.50;;
44925;SDS011;30662;51.210;7.656;2023-04-25T09:59:47;11.77;;;4.25;;
44925;SDS011;30662;51.210;7.656;2023-04-25T10:02:15;13.48;;;4.65;;
44925;SDS011;30662;51.210;7.656;2023-04-25T10:04:47;12.55;;;3.33;;
44925;SDS011;30662;51.210;7.656;2023-04-25T10:07:17;14.65;;;3.50;;
44925;SDS011;30662;51.210;7.656;2023-04-25T10:09:44;12.73;;;2.88;;
44925;SDS011;30662;51.210;7.656;2023-04-25T10:12:13;8.45;;;2.33;;
44925;SDS011;30662;51.210;7.656;2023-04-25T10:14:40;8.65;;;2.53;;
44925;SDS011;30662;51.210;7.656;2023-04-25T10:17:06;10.63;;;2.63;;
44925;SDS011;30662;51.210;7.656;2023-04-25T10:19:34;17.85;;;3.30;;
44925;SDS011;30662;51.210;7.656;2023-04-25T10:24:31;9.30;;;2.97;;
44925;SDS011;30662;51.210;7.656;2023-04-25T10:26:57;11.52;;;2.78;;
44925;SDS011;30662;51.210;7.656;2023-04-25T10:29:24;5.20;;;1.60;;
44925;SDS011;30662;51.210;7.656;2023-04-25T10:31:51;5.28;;;1.70;;
44925;SDS011;30662;51.210;7.656;2023-04-25T10:34:18;6.60;;;1.83;;
44925;SDS011;30662;51.210;7.656;2023-04-25T10:36:51;5.85;;;1.85;;
44925;SDS011;30662;51.210;7.656;2023-04-25T10:39:24;5.65;;;1.70;;
44925;SDS011;30662;51.210;7.656;2023-04-25T10:41:56;4.53;;;2.15;;
44925;SDS011;30662;51.210;7.656;2023-04-25T10:44:26;7.07;;;1.60;;
44925;SDS011;30662;51.210;7.656;2023-04-25T10:46:57;4.30;;;1.60;;
44925;SDS011;30662;51.210;7.656;2023-04-25T10:49:34;6.93;;;1.77;;
44925;SDS011;30662;51.210;7.656;2023-04-25T10:54:54;6.93;;;1.85;;
44925;SDS011;30662;51.210;7.656;2023-04-25T11:02:48;6.10;;;2.25;;
44925;SDS011;30662;51.210;7.656;2023-04-25T11:05:34;7.65;;;2.35;;
44925;SDS011;30662;51.210;7.656;2023-04-25T11:08:16;6.15;;;1.85;;
44925;SDS011;30662;51.210;7.656;2023-04-25T11:10:59;7.10;;;2.95;;
44925;SDS011;30662;51.210;7.656;2023-04-25T11:13:28;9.80;;;2.03;;
44925;SDS011;30662;51.210;7.656;2023-04-25T11:15:55;7.20;;;1.70;;
44925;SDS011;30662;51.210;7.656;2023-04-25T11:18:40;7.00;;;1.90;;
44925;SDS011;30662;51.210;7.656;2023-04-25T11:21:06;8.93;;;1.80;;
44925;SDS011;30662;51.210;7.656;2023-04-25T11:23:32;5.13;;;2.00;;
44925;SDS011;30662;51.210;7.656;2023-04-25T11:25:59;8.00;;;1.58;;
44925;SDS011;30662;51.210;7.656;2023-04-25T11:28:26;8.60;;;2.65;;
44925;SDS011;30662;51.210;7.656;2023-04-25T11:30:53;8.77;;;1.85;;
44925;SDS011;30662;51.210;7.656;2023-04-25T11:33:28;5.00;;;1.67;;
44925;SDS011;30662;51.210;7.656;2023-04-25T11:35:54;6.13;;;1.77;;
44925;SDS011;30662;51.210;7.656;2023-04-25T11:38:23;7.13;;;2.35;;
44925;SDS011;30662;51.210;7.656;2023-04-25T11:40:53;5.75;;;1.77;;
44925;SDS011;30662;51.210;7.656;2023-04-25T11:43:20;7.40;;;2.40;;
44925;SDS011;30662;51.210;7.656;2023-04-25T11:45:47;5.35;;;2.05;;
44925;SDS011;30662;51.210;7.656;2023-04-25T11:48:18;5.97;;;2.28;;
44925;SDS011;30662;51.210;7.656;2023-04-25T11:50:46;6.82;;;2.53;;
44925;SDS011;30662;51.210;7.656;2023-04-25T11:53:12;10.25;;;1.98;;
44925;SDS011;30662;51.210;7.656;2023-04-25T11:55:38;8.15;;;2.22;;
44925;SDS011;30662;51.210;7.656;2023-04-25T11:58:05;4.47;;;1.65;;
44925;SDS011;30662;51.210;7.656;2023-04-25T12:00:31;7.90;;;1.70;;
44925;SDS011;30662;51.210;7.656;2023-04-25T12:02:57;3.72;;;1.58;;
44925;SDS011;30662;51.210;7.656;2023-04-25T12:05:25;6.18;;;1.65;;
44925;SDS011;30662;51.210;7.656;2023-04-25T12:10:41;6.03;;;1.73;;
44925;SDS011;30662;51.210;7.656;2023-04-25T12:13:18;7.40;;;2.05;;
44925;SDS011;30662;51.210;7.656;2023-04-25T12:15:45;4.43;;;1.90;;
44925;SDS011;30662;51.210;7.656;2023-04-25T12:18:11;5.85;;;1.77;;
44925;SDS011;30662;51.210;7.656;2023-04-25T12:20:37;8.55;;;2.28;;
44925;SDS011;30662;51.210;7.656;2023-04-25T12:23:05;6.68;;;2.15;;
44925;SDS011;30662;51.210;7.656;2023-04-25T12:25:40;5.57;;;1.90;;
44925;SDS011;30662;51.210;7.656;2023-04-25T12:33:28;6.43;;;1.95;;
44925;SDS011;30662;51.210;7.656;2023-04-25T12:35:56;10.70;;;2.58;;
44925;SDS011;30662;51.210;7.656;2023-04-25T12:38:23;6.60;;;2.35;;
44925;SDS011;30662;51.210;7.656;2023-04-25T12:40:56;5.40;;;2.03;;
44925;SDS011;30662;51.210;7.656;2023-04-25T12:43:23;4.18;;;1.85;;
44925;SDS011;30662;51.210;7.656;2023-04-25T12:45:49;7.35;;;2.10;;
44925;SDS011;30662;51.210;7.656;2023-04-25T12:48:17;11.68;;;1.92;;
44925;SDS011;30662;51.210;7.656;2023-04-25T12:50:43;5.40;;;1.60;;
44925;SDS011;30662;51.210;7.656;2023-04-25T12:53:09;2.95;;;1.48;;
44925;SDS011;30662;51.210;7.656;2023-04-25T12:55:36;6.80;;;1.35;;
44925;SDS011;30662;51.210;7.656;2023-04-25T12:58:02;5.68;;;1.60;;
44925;SDS011;30662;51.210;7.656;2023-04-25T13:00:29;3.85;;;1.73;;
44925;SDS011;30662;51.210;7.656;2023-04-25T13:02:55;3.55;;;1.65;;
44925;SDS011;30662;51.210;7.656;2023-04-25T13:05:21;2.75;;;1.50;;
44925;SDS011;30662;51.210;7.656;2023-04-25T13:07:47;8.05;;;2.60;;
44925;SDS011;30662;51.210;7.656;2023-04-25T13:10:13;4.57;;;2.03;;
44925;SDS011;30662;51.210;7.656;2023-04-25T13:12:39;5.65;;;1.80;;
44925;SDS011;30662;51.210;7.656;2023-04-25T13:15:05;9.88;;;2.33;;
44925;SDS011;30662;51.210;7.656;2023-04-25T13:17:32;4.75;;;2.08;;
44925;SDS011;30662;51.210;7.656;2023-04-25T13:19:58;3.58;;;1.50;;
44925;SDS011;30662;51.210;7.656;2023-04-25T13:22:24;6.25;;;1.42;;
44925;SDS011;30662;51.210;7.656;2023-04-25T13:24:50;5.30;;;1.70;;
44925;SDS011;30662;51.210;7.656;2023-04-25T13:27:15;3.80;;;1.88;;
44925;SDS011;30662;51.210;7.656;2023-04-25T13:29:41;7.40;;;2.28;;
44925;SDS011;30662;51.210;7.656;2023-04-25T13:32:08;4.15;;;1.58;;
44925;SDS011;30662;51.210;7.656;2023-04-25T13:34:34;4.68;;;1.85;;
44925;SDS011;30662;51.210;7.656;2023-04-25T13:37:00;6.93;;;2.38;;
44925;SDS011;30662;51.210;7.656;2023-04-25T13:39:26;8.60;;;2.03;;
44925;SDS011;30662;51.210;7.656;2023-04-25T13:41:52;10.45;;;4.05;;
44925;SDS011;30662;51.210;7.656;2023-04-25T13:44:17;3.22;;;2.03;;
44925;SDS011;30662;51.210;7.656;2023-04-25T13:46:43;3.97;;;2.35;;
44925;SDS011;30662;51.210;7.656;2023-04-25T13:49:13;3.85;;;2.10;;
44925;SDS011;30662;51.210;7.656;2023-04-25T13:51:39;7.28;;;2.80;;
44925;SDS011;30662;51.210;7.656;2023-04-25T13:54:05;7.43;;;3.72;;
44925;SDS011;30662;51.210;7.656;2023-04-25T13:56:31;4.65;;;2.55;;
44925;SDS011;30662;51.210;7.656;2023-04-25T13:58:57;6.60;;;2.90;;
44925;SDS011;30662;51.210;7.656;2023-04-25T14:01:23;8.50;;;2.55;;
44925;SDS011;30662;51.210;7.656;2023-04-25T14:03:49;5.85;;;4.00;;
44925;SDS011;30662;51.210;7.656;2023-04-25T14:06:15;7.60;;;2.40;;
44925;SDS011;30662;51.210;7.656;2023-04-25T14:08:48;7.07;;;1.80;;
44925;SDS011;30662;51.210;7.656;2023-04-25T14:11:15;4.55;;;1.95;;
44925;SDS011;30662;51.210;7.656;2023-04-25T14:13:43;5.85;;;1.73;;
44925;SDS011;30662;51.210;7.656;2023-04-25T14:16:10;3.92;;;2.30;;
44925;SDS011;30662;51.210;7.656;2023-04-25T14:18:36;5.50;;;2.17;;
44925;SDS011;30662;51.210;7.656;2023-04-25T14:21:02;4.00;;;2.00;;
44925;SDS011;30662;51.210;7.656;2023-04-25T14:23:28;5.10;;;1.77;;
44925;SDS011;30662;51.210;7.656;2023-04-25T14:25:54;4.28;;;1.73;;
44925;SDS011;30662;51.210;7.656;2023-04-25T14:28:19;6.72;;;2.03;;
44925;SDS011;30662;51.210;7.656;2023-04-25T14:30:45;6.90;;;2.38;;
44925;SDS011;30662;51.210;7.656;2023-04-25T14:33:11;4.40;;;2.30;;
44925;SDS011;30662;51.210;7.656;2023-04-25T14:35:37;6.25;;;1.95;;
44925;SDS011;30662;51.210;7.656;2023-04-25T14:38:03;8.43;;;3.45;;
44925;SDS011;30662;51.210;7.656;2023-04-25T14:40:29;5.90;;;2.90;;
44925;SDS011;30662;51.210;7.656;2023-04-25T14:42:55;5.05;;;2.22;;
44925;SDS011;30662;51.210;7.656;2023-04-25T14:45:21;5.40;;;2.95;;
44925;SDS011;30662;51.210;7.656;2023-04-25T14:47:46;5.55;;;2.15;;
44925;SDS011;30662;51.210;7.656;2023-04-25T14:50:12;5.00;;;2.22;;
44925;SDS011;30662;51.210;7.656;2023-04-25T14:52:38;3.33;;;1.55;;
44925;SDS011;30662;51.210;7.656;2023-04-25T14:55:04;4.57;;;1.75;;
44925;SDS011;30662;51.210;7.656;2023-04-25T14:57:31;10.95;;;3.28;;